Sovereign — 9HUE9 — position and weather

sailwx.info

Track history (hours):
 
Tides and Currents Weather Stations Pressure Air Temp Water Temp Dewpoint Dewpoint Depression Visibility Wind Speed Wind Dir Waves Ship Positions

Sovereign

Last reported at 2017-Mar-25 19:07 UTC. Time now 2017-Mar-28 19:50 UTC.
Position N 41°17' E 002°46'.

Length 269 m; draft 7.8 m.

Type: Passenger vessel. MMSI: 249539000.

Date/timePositionNaut miles runAvg speedWind from/ knotsBaromVisibWave heightAir tempDewpointWater temp
2017-Mar-25 19:07N 41°17' E 002°46'916.5
2017-Mar-25 18:33N 41°17' E 002°34'1716.2
2017-Mar-25 17:30N 41°16' E 002°11'5 1.6
2017-Mar-25 14:11N 41°22' E 002°11'0 0.0
2017-Mar-25 13:11N 41°22' E 002°11'19710.0
2017-Mar-24 17:32N 43°05' E 005°57'3 2.8
2017-Mar-24 16:32N 43°06' E 005°54'0 0.0
2017-Mar-24 15:31N 43°06' E 005°54'0 0.0
2017-Mar-24 14:32N 43°06' E 005°54'0 0.0
2017-Mar-24 13:31N 43°06' E 005°54'0 0.0
2017-Mar-24 12:31N 43°06' E 005°54'0 0.0
2017-Mar-24 11:25N 43°06' E 005°54'0 0.0
2017-Mar-24 10:26N 43°06' E 005°54'0 0.0
2017-Mar-24 09:32N 43°06' E 005°54'0 0.0
2017-Mar-24 08:28N 43°06' E 005°54'0 0.0
2017-Mar-24 07:31N 43°06' E 005°54'0 0.2
2017-Mar-24 06:33N 43°06' E 005°54'6 5.3
2017-Mar-24 05:27N 43°03' E 006°01'40 6.7
2017-Mar-23 23:31N 43°02' E 006°55'1010.3
2017-Mar-23 22:33N 43°10' E 007°04'1010.2
2017-Mar-23 21:33N 43°17' E 007°13'10 9.8
2017-Mar-23 20:33N 43°27' E 007°17'1110.6
2017-Mar-23 19:33N 43°37' E 007°18'5 2.3
2017-Mar-23 17:33N 43°42' E 007°19'0 0.0
2017-Mar-23 16:18N 43°42' E 007°19'0 0.0
2017-Mar-23 15:21N 43°42' E 007°19'0 0.0
2017-Mar-23 12:33N 43°42' E 007°19'0 0.0
2017-Mar-23 11:30N 43°42' E 007°19'6 6.8
2017-Mar-23 10:33N 43°36' E 007°16'1312.7
2017-Mar-23 09:33N 43°25' E 007°06'1613.3
2017-Mar-23 08:20N 43°13' E 006°51'1113.5
2017-Mar-23 07:33N 43°05' E 006°42'16115.9
2017-Mar-22 21:25N 41°43' E 003°34'2116.0
2017-Mar-22 20:06N 41°32' E 003°09'916.3
2017-Mar-22 19:32N 41°28' E 002°58'1716.5
2017-Mar-22 18:32N 41°20' E 002°39'1615.8
2017-Mar-22 17:32N 41°17' E 002°19'7 5.0
2017-Mar-22 16:06N 41°22' E 002°11'0 0.0
2017-Mar-22 15:12N 41°22' E 002°11'0 0.0
2017-Mar-22 14:33N 41°22' E 002°11'0 0.0
2017-Mar-22 13:30N 41°22' E 002°11'0 0.0
2017-Mar-22 09:24N 41°22' E 002°11'0 0.0
2017-Mar-22 07:30N 41°22' E 002°11'0 0.1
2017-Mar-22 06:33N 41°21' E 002°11'8 7.6
2017-Mar-22 05:33N 41°14' E 002°10'9 9.0
2017-Mar-22 04:33N 41°06' E 002°04'9 9.1
2017-Mar-22 03:33N 40°58' E 001°59'9 8.7
2017-Mar-22 02:33N 40°50' E 001°55'8 8.1
2017-Mar-22 01:33N 40°43' E 001°50'9 8.7
2017-Mar-22 00:33N 40°35' E 001°44'9 9.1
2017-Mar-21 23:33N 40°27' E 001°38'9 9.3
2017-Mar-21 22:33N 40°19' E 001°33'9 9.0
2017-Mar-21 21:33N 40°11' E 001°27'9 9.1
2017-Mar-21 20:33N 40°03' E 001°22'9 9.0
2017-Mar-21 19:33N 39°55' E 001°16'10 8.8
2017-Mar-21 18:28N 39°46' E 001°11'2211.2
2017-Mar-21 16:33N 39°27' E 000°58'1111.4
2017-Mar-21 15:33N 39°17' E 000°51'1211.6
2017-Mar-21 14:33N 39°07' E 000°44'1211.9
2017-Mar-21 13:33N 38°56' E 000°38'1111.6
2017-Mar-21 12:33N 38°46' E 000°31'1211.7
2017-Mar-21 11:31N 38°36' E 000°22'3511.7
2017-Mar-21 08:31N 38°06' W 000°02'1815.3
2017-Mar-21 07:20N 37°51' W 000°14'1316.9
2017-Mar-21 06:33N 37°41' W 000°25'1716.9
2017-Mar-21 05:33N 37°28' W 000°39'1716.8
2017-Mar-21 04:33N 37°17' W 000°54'1716.8
2017-Mar-21 03:33N 37°05' W 001°11'1916.9
2017-Mar-21 02:26N 36°52' W 001°27'1516.6
2017-Mar-21 01:33N 36°43' W 001°42'16916.9
2017-Mar-20 15:33N 36°01' W 005°05'1919.0
2017-Mar-20 14:33N 35°57' W 005°28'1818.3
2017-Mar-20 13:33N 35°54' W 005°50'6616.4
2017-Mar-20 09:33N 35°19' W 006°59'2016.5
2017-Mar-20 08:21N 35°06' W 007°16'8916.9
2017-Mar-20 03:05N 34°06' W 008°36'916.9
2017-Mar-20 02:33N 33°60' W 008°45'1716.6
2017-Mar-20 01:33N 33°48' W 008°59'1716.7
2017-Mar-20 00:31N 33°37' W 009°15'1616.2
2017-Mar-19 23:31N 33°26' W 009°29'3216.4
2017-Mar-19 21:33N 33°04' W 009°57'39516.2
2017-Mar-18 21:10N 28°38' W 015°37'1216.2
2017-Mar-18 20:25N 28°29' W 015°47'1213.9
2017-Mar-18 19:32N 28°24' W 015°59'13 1.1
2017-Mar-18 07:33N 28°28' W 016°13'1010.3
2017-Mar-18 06:32N 28°21' W 016°05'1412.7
2017-Mar-18 05:26N 28°07' W 016°07'1415.9
2017-Mar-18 04:31N 27°56' W 016°17'  
Track history (hours):
 
Tides and Currents Weather Stations Pressure Air Temp Water Temp Dewpoint Dewpoint Depression Visibility Wind Speed Wind Dir Waves Ship Positions

Sovereign

Last reported at 2017-Mar-25 19:07 UTC. Time now 2017-Mar-28 19:50 UTC.
Position N 41°17' E 002°46'.

Length 269 m; draft 7.8 m.

Type: Passenger vessel. MMSI: 249539000.

Date/timePositionNaut miles runAvg speedWind from/ knotsBaromVisibWave heightAir tempDewpointWater temp
2017-Mar-25 19:07N 41°17' E 002°46'916.5
2017-Mar-25 18:33N 41°17' E 002°34'1716.2
2017-Mar-25 17:30N 41°16' E 002°11'5 1.6
2017-Mar-25 14:11N 41°22' E 002°11'0 0.0
2017-Mar-25 13:11N 41°22' E 002°11'19710.0
2017-Mar-24 17:32N 43°05' E 005°57'3 2.8
2017-Mar-24 16:32N 43°06' E 005°54'0 0.0
2017-Mar-24 15:31N 43°06' E 005°54'0 0.0
2017-Mar-24 14:32N 43°06' E 005°54'0 0.0
2017-Mar-24 13:31N 43°06' E 005°54'0 0.0
2017-Mar-24 12:31N 43°06' E 005°54'0 0.0
2017-Mar-24 11:25N 43°06' E 005°54'0 0.0
2017-Mar-24 10:26N 43°06' E 005°54'0 0.0
2017-Mar-24 09:32N 43°06' E 005°54'0 0.0
2017-Mar-24 08:28N 43°06' E 005°54'0 0.0
2017-Mar-24 07:31N 43°06' E 005°54'0 0.2
2017-Mar-24 06:33N 43°06' E 005°54'6 5.3
2017-Mar-24 05:27N 43°03' E 006°01'40 6.7
2017-Mar-23 23:31N 43°02' E 006°55'1010.3
2017-Mar-23 22:33N 43°10' E 007°04'1010.2
2017-Mar-23 21:33N 43°17' E 007°13'10 9.8
2017-Mar-23 20:33N 43°27' E 007°17'1110.6
2017-Mar-23 19:33N 43°37' E 007°18'5 2.3
2017-Mar-23 17:33N 43°42' E 007°19'0 0.0
2017-Mar-23 16:18N 43°42' E 007°19'0 0.0
2017-Mar-23 15:21N 43°42' E 007°19'0 0.0
2017-Mar-23 12:33N 43°42' E 007°19'0 0.0
2017-Mar-23 11:30N 43°42' E 007°19'6 6.8
2017-Mar-23 10:33N 43°36' E 007°16'1312.7
2017-Mar-23 09:33N 43°25' E 007°06'1613.3
2017-Mar-23 08:20N 43°13' E 006°51'1113.5
2017-Mar-23 07:33N 43°05' E 006°42'16115.9
2017-Mar-22 21:25N 41°43' E 003°34'2116.0
2017-Mar-22 20:06N 41°32' E 003°09'916.3
2017-Mar-22 19:32N 41°28' E 002°58'1716.5
2017-Mar-22 18:32N 41°20' E 002°39'1615.8
2017-Mar-22 17:32N 41°17' E 002°19'7 5.0
2017-Mar-22 16:06N 41°22' E 002°11'0 0.0
2017-Mar-22 15:12N 41°22' E 002°11'0 0.0
2017-Mar-22 14:33N 41°22' E 002°11'0 0.0
2017-Mar-22 13:30N 41°22' E 002°11'0 0.0
2017-Mar-22 09:24N 41°22' E 002°11'0 0.0
2017-Mar-22 07:30N 41°22' E 002°11'0 0.1
2017-Mar-22 06:33N 41°21' E 002°11'8 7.6
2017-Mar-22 05:33N 41°14' E 002°10'9 9.0
2017-Mar-22 04:33N 41°06' E 002°04'9 9.1
2017-Mar-22 03:33N 40°58' E 001°59'9 8.7
2017-Mar-22 02:33N 40°50' E 001°55'8 8.1
2017-Mar-22 01:33N 40°43' E 001°50'9 8.7
2017-Mar-22 00:33N 40°35' E 001°44'9 9.1
2017-Mar-21 23:33N 40°27' E 001°38'9 9.3
2017-Mar-21 22:33N 40°19' E 001°33'9 9.0
2017-Mar-21 21:33N 40°11' E 001°27'9 9.1
2017-Mar-21 20:33N 40°03' E 001°22'9 9.0
2017-Mar-21 19:33N 39°55' E 001°16'10 8.8
2017-Mar-21 18:28N 39°46' E 001°11'2211.2
2017-Mar-21 16:33N 39°27' E 000°58'1111.4
2017-Mar-21 15:33N 39°17' E 000°51'1211.6
2017-Mar-21 14:33N 39°07' E 000°44'1211.9
2017-Mar-21 13:33N 38°56' E 000°38'1111.6
2017-Mar-21 12:33N 38°46' E 000°31'1211.7
2017-Mar-21 11:31N 38°36' E 000°22'3511.7
2017-Mar-21 08:31N 38°06' W 000°02'1815.3
2017-Mar-21 07:20N 37°51' W 000°14'1316.9
2017-Mar-21 06:33N 37°41' W 000°25'1716.9
2017-Mar-21 05:33N 37°28' W 000°39'1716.8
2017-Mar-21 04:33N 37°17' W 000°54'1716.8
2017-Mar-21 03:33N 37°05' W 001°11'1916.9
2017-Mar-21 02:26N 36°52' W 001°27'1516.6
2017-Mar-21 01:33N 36°43' W 001°42'16916.9
2017-Mar-20 15:33N 36°01' W 005°05'1919.0
2017-Mar-20 14:33N 35°57' W 005°28'1818.3
2017-Mar-20 13:33N 35°54' W 005°50'6616.4
2017-Mar-20 09:33N 35°19' W 006°59'2016.5
2017-Mar-20 08:21N 35°06' W 007°16'8916.9
2017-Mar-20 03:05N 34°06' W 008°36'916.9
2017-Mar-20 02:33N 33°60' W 008°45'1716.6
2017-Mar-20 01:33N 33°48' W 008°59'1716.7
2017-Mar-20 00:31N 33°37' W 009°15'1616.2
2017-Mar-19 23:31N 33°26' W 009°29'3216.4
2017-Mar-19 21:33N 33°04' W 009°57'39516.2
2017-Mar-18 21:10N 28°38' W 015°37'1216.2
2017-Mar-18 20:25N 28°29' W 015°47'1213.9
2017-Mar-18 19:32N 28°24' W 015°59'13 1.1
2017-Mar-18 07:33N 28°28' W 016°13'1010.3
2017-Mar-18 06:32N 28°21' W 016°05'1412.7
2017-Mar-18 05:26N 28°07' W 016°07'1415.9
2017-Mar-18 04:31N 27°56' W 016°17'  

Dump ship's entire track history